Main page
METAR-TAF:

METAR-TAF

Airports :

Wattay International Airport

Vientiane, Laos

latitude: 17-57N, longitude: 102-34E, elevation: 171 m

Current weather observation

The report was made 27 minutes ago, at 23:00 UTC
Wind 6 kt from the East/Southeast
Temperature 19°C
Humidity 78%
Pressure 1018 hPa
Visibility: 4000 m
Broken clouds at a height of 5000 ft
mist

METAR: VLVT 212300Z 12006KT 4000 BR BKN050 19/15 Q1018 NOSIG

Time: 06:27 (23:27 UTC)

Forecast

The report was made 6 hours and 27 minutes ago, at 17:00 UTC
Forecast valid from 21 at 18 UTC to 22 at 18 UTC
Wind 4 kt from the East/Northeast
Visibility: 8000 m
Few clouds at a height of 2000 ft
Few clouds at a height of 5000 ft
Temporary
from 21 at 18 UTC to 21 at 22 UTC
Visibility: 4000 m
Few clouds at a height of 5000 ft
Few clouds at a height of 20000 ft
mist

TAF: VLVT 211700Z 2118/2218 06004KT 8000 FEW020 FEW050 TEMPO 2118/2122 4000 BR FEW050 FEW200

Weather observations and forecasts of more than 4000 airports (METAR and TAF reports).

The available stations are represented by yellow and red dots on the map.

Hover mouse over dot to see the name of the station.

Then click to see weather observations and forecasts.

To change the map : click on the green buttons with a black cross to zoom in, on the green button with a dash to zoom out, or on the green arrows for adjacent maps.


METAR-TAF: